Mestre Comboio — CUFU3 — position and weather

sailwx.info

Track history (hours):
 
Tides and Currents Weather Stations Pressure Air Temp Water Temp Dewpoint Dewpoint Depression Visibility Wind Speed Wind Dir Waves Ship Positions

Mestre Comboio

Last reported at 2017-Oct-30 20:09 UTC. Time now 2017-Nov-18 15:39 UTC.
Position N 39°21' W 009°22'.
Warning: this ship's position is 18 days out of date.

Length 23 m.

Type: Fishing. MMSI: 263414970.

Date/timePositionNaut miles runAvg speedWind from/ knotsBaromVisibWave heightAir tempDewpointWater temp
2017-Oct-30 20:09N 39°21' W 009°22'1 6.4
2017-Oct-30 20:00N 39°21' W 009°23'5 9.2
2017-Oct-30 19:30N 39°24' W 009°27'2 1.8
2017-Oct-30 18:25N 39°26' W 009°28'0 0.7
2017-Oct-30 17:59N 39°26' W 009°28'0 0.2
2017-Oct-30 15:35N 39°26' W 009°28'0 2.8
2017-Oct-30 15:29N 39°26' W 009°28'0 0.3
2017-Oct-30 14:13N 39°26' W 009°28'3 3.7
2017-Oct-30 13:30N 39°24' W 009°27'4 8.5
2017-Oct-30 13:00N 39°21' W 009°22'  
2017-Oct-27 19:19N 39°21' W 009°22'3 8.4
2017-Oct-27 19:00N 39°22' W 009°26'5 9.1
2017-Oct-27 18:29N 39°26' W 009°28'0 0.8
2017-Oct-27 17:57N 39°26' W 009°28'0 0.8
2017-Oct-27 17:30N 39°26' W 009°28'1 1.2
2017-Oct-27 17:00N 39°26' W 009°28'0 0.1
2017-Oct-27 15:44N 39°26' W 009°28'2 7.1
2017-Oct-27 15:25N 39°26' W 009°31'1 1.6
2017-Oct-27 14:58N 39°27' W 009°32'2 4.4
2017-Oct-27 14:25N 39°27' W 009°29'2 4.2
2017-Oct-27 13:58N 39°25' W 009°28'5 9.7
2017-Oct-27 13:26N 39°21' W 009°24'  
2017-Oct-24 19:54N 39°12' W 009°25'410.7
2017-Oct-24 19:31N 39°08' W 009°26'510.8
2017-Oct-24 19:00N 39°02' W 009°27'510.7
2017-Oct-24 18:30N 38°57' W 009°27'3 6.7
2017-Oct-24 17:59N 38°53' W 009°28'0 0.4
2017-Oct-24 17:25N 38°53' W 009°28'1 3.6
2017-Oct-24 17:01N 38°55' W 009°27'1 1.2
2017-Oct-24 16:29N 38°54' W 009°28'0 0.5
2017-Oct-24 15:59N 38°54' W 009°28'1 1.5
2017-Oct-24 15:29N 38°54' W 009°27'0 0.5
2017-Oct-24 15:00N 38°54' W 009°27'0 0.6
2017-Oct-24 14:30N 38°54' W 009°28'5 9.6
2017-Oct-24 14:01N 38°59' W 009°27'510.5
2017-Oct-24 13:31N 39°04' W 009°26'510.5
2017-Oct-24 13:01N 39°09' W 009°24'510.8
2017-Oct-24 12:30N 39°15' W 009°23'7 0.4
2017-Oct-23 19:59N 39°21' W 009°22'3 6.6
2017-Oct-23 19:28N 39°18' W 009°23'510.5
2017-Oct-23 18:58N 39°13' W 009°24'510.4
2017-Oct-23 18:30N 39°08' W 009°25'510.5
2017-Oct-23 18:01N 39°03' W 009°27'510.3
2017-Oct-23 17:30N 38°58' W 009°27'4 6.8
2017-Oct-23 16:59N 38°54' W 009°28'0 0.2
2017-Oct-23 16:30N 38°54' W 009°28'0 0.8
2017-Oct-23 16:00N 38°54' W 009°27'1 1.1
2017-Oct-23 15:28N 38°55' W 009°27'0 0.2
2017-Oct-23 15:00N 38°55' W 009°27'1 2.2
2017-Oct-23 14:30N 38°56' W 009°26'3 5.1
2017-Oct-23 14:00N 38°59' W 009°27'510.8
2017-Oct-23 13:30N 39°04' W 009°26'510.7
2017-Oct-23 13:00N 39°09' W 009°24'610.9
2017-Oct-23 12:30N 39°14' W 009°23'511.2
2017-Oct-23 12:00N 39°20' W 009°23'  
Track history (hours):
 
Tides and Currents Weather Stations Pressure Air Temp Water Temp Dewpoint Dewpoint Depression Visibility Wind Speed Wind Dir Waves Ship Positions

Mestre Comboio

Last reported at 2017-Oct-30 20:09 UTC. Time now 2017-Nov-18 15:39 UTC.
Position N 39°21' W 009°22'.
Warning: this ship's position is 18 days out of date.

Length 23 m.

Type: Fishing. MMSI: 263414970.

Date/timePositionNaut miles runAvg speedWind from/ knotsBaromVisibWave heightAir tempDewpointWater temp
2017-Oct-30 20:09N 39°21' W 009°22'1 6.4
2017-Oct-30 20:00N 39°21' W 009°23'5 9.2
2017-Oct-30 19:30N 39°24' W 009°27'2 1.8
2017-Oct-30 18:25N 39°26' W 009°28'0 0.7
2017-Oct-30 17:59N 39°26' W 009°28'0 0.2
2017-Oct-30 15:35N 39°26' W 009°28'0 2.8
2017-Oct-30 15:29N 39°26' W 009°28'0 0.3
2017-Oct-30 14:13N 39°26' W 009°28'3 3.7
2017-Oct-30 13:30N 39°24' W 009°27'4 8.5
2017-Oct-30 13:00N 39°21' W 009°22'  
2017-Oct-27 19:19N 39°21' W 009°22'3 8.4
2017-Oct-27 19:00N 39°22' W 009°26'5 9.1
2017-Oct-27 18:29N 39°26' W 009°28'0 0.8
2017-Oct-27 17:57N 39°26' W 009°28'0 0.8
2017-Oct-27 17:30N 39°26' W 009°28'1 1.2
2017-Oct-27 17:00N 39°26' W 009°28'0 0.1
2017-Oct-27 15:44N 39°26' W 009°28'2 7.1
2017-Oct-27 15:25N 39°26' W 009°31'1 1.6
2017-Oct-27 14:58N 39°27' W 009°32'2 4.4
2017-Oct-27 14:25N 39°27' W 009°29'2 4.2
2017-Oct-27 13:58N 39°25' W 009°28'5 9.7
2017-Oct-27 13:26N 39°21' W 009°24'  
2017-Oct-24 19:54N 39°12' W 009°25'410.7
2017-Oct-24 19:31N 39°08' W 009°26'510.8
2017-Oct-24 19:00N 39°02' W 009°27'510.7
2017-Oct-24 18:30N 38°57' W 009°27'3 6.7
2017-Oct-24 17:59N 38°53' W 009°28'0 0.4
2017-Oct-24 17:25N 38°53' W 009°28'1 3.6
2017-Oct-24 17:01N 38°55' W 009°27'1 1.2
2017-Oct-24 16:29N 38°54' W 009°28'0 0.5
2017-Oct-24 15:59N 38°54' W 009°28'1 1.5
2017-Oct-24 15:29N 38°54' W 009°27'0 0.5
2017-Oct-24 15:00N 38°54' W 009°27'0 0.6
2017-Oct-24 14:30N 38°54' W 009°28'5 9.6
2017-Oct-24 14:01N 38°59' W 009°27'510.5
2017-Oct-24 13:31N 39°04' W 009°26'510.5
2017-Oct-24 13:01N 39°09' W 009°24'510.8
2017-Oct-24 12:30N 39°15' W 009°23'7 0.4
2017-Oct-23 19:59N 39°21' W 009°22'3 6.6
2017-Oct-23 19:28N 39°18' W 009°23'510.5
2017-Oct-23 18:58N 39°13' W 009°24'510.4
2017-Oct-23 18:30N 39°08' W 009°25'510.5
2017-Oct-23 18:01N 39°03' W 009°27'510.3
2017-Oct-23 17:30N 38°58' W 009°27'4 6.8
2017-Oct-23 16:59N 38°54' W 009°28'0 0.2
2017-Oct-23 16:30N 38°54' W 009°28'0 0.8
2017-Oct-23 16:00N 38°54' W 009°27'1 1.1
2017-Oct-23 15:28N 38°55' W 009°27'0 0.2
2017-Oct-23 15:00N 38°55' W 009°27'1 2.2
2017-Oct-23 14:30N 38°56' W 009°26'3 5.1
2017-Oct-23 14:00N 38°59' W 009°27'510.8
2017-Oct-23 13:30N 39°04' W 009°26'510.7
2017-Oct-23 13:00N 39°09' W 009°24'610.9
2017-Oct-23 12:30N 39°14' W 009°23'511.2
2017-Oct-23 12:00N 39°20' W 009°23'  

Dump ship's entire track history